sensor_id;sensor_type;location;lat;lon;timestamp;P1;durP1;ratioP1;P2;durP2;ratioP2
14306;SDS011;7237;49.500;11.400;2023-08-17T00:01:18;5.45;;;4.78;;
14306;SDS011;7237;49.500;11.400;2023-08-17T00:03:46;5.93;;;5.20;;
14306;SDS011;7237;49.500;11.400;2023-08-17T00:06:14;5.82;;;5.07;;
14306;SDS011;7237;49.500;11.400;2023-08-17T00:08:41;8.52;;;5.45;;
14306;SDS011;7237;49.500;11.400;2023-08-17T00:11:08;7.15;;;5.50;;
14306;SDS011;7237;49.500;11.400;2023-08-17T00:13:35;8.60;;;5.43;;
14306;SDS011;7237;49.500;11.400;2023-08-17T00:16:02;5.97;;;4.63;;
14306;SDS011;7237;49.500;11.400;2023-08-17T00:18:30;5.53;;;5.03;;
14306;SDS011;7237;49.500;11.400;2023-08-17T00:20:57;5.63;;;5.20;;
14306;SDS011;7237;49.500;11.400;2023-08-17T00:23:26;6.22;;;5.43;;
14306;SDS011;7237;49.500;11.400;2023-08-17T00:25:53;5.82;;;5.13;;
14306;SDS011;7237;49.500;11.400;2023-08-17T00:28:20;5.90;;;4.88;;
14306;SDS011;7237;49.500;11.400;2023-08-17T00:30:47;8.48;;;5.07;;
14306;SDS011;7237;49.500;11.400;2023-08-17T00:33:14;5.78;;;4.90;;
14306;SDS011;7237;49.500;11.400;2023-08-17T00:35:41;8.43;;;5.55;;
14306;SDS011;7237;49.500;11.400;2023-08-17T00:38:10;6.85;;;5.47;;
14306;SDS011;7237;49.500;11.400;2023-08-17T00:40:39;9.25;;;5.47;;
14306;SDS011;7237;49.500;11.400;2023-08-17T00:43:06;5.65;;;5.18;;
14306;SDS011;7237;49.500;11.400;2023-08-17T00:45:33;5.68;;;5.10;;
14306;SDS011;7237;49.500;11.400;2023-08-17T00:48:01;5.35;;;4.78;;
14306;SDS011;7237;49.500;11.400;2023-08-17T00:50:30;11.75;;;4.93;;
14306;SDS011;7237;49.500;11.400;2023-08-17T00:52:57;5.80;;;5.30;;
14306;SDS011;7237;49.500;11.400;2023-08-17T00:55:24;6.07;;;5.15;;
14306;SDS011;7237;49.500;11.400;2023-08-17T00:57:53;6.75;;;5.28;;
14306;SDS011;7237;49.500;11.400;2023-08-17T01:00:20;7.75;;;5.15;;
14306;SDS011;7237;49.500;11.400;2023-08-17T01:02:47;7.47;;;5.28;;
14306;SDS011;7237;49.500;11.400;2023-08-17T01:05:14;8.52;;;5.60;;
14306;SDS011;7237;49.500;11.400;2023-08-17T01:07:41;6.20;;;5.40;;
14306;SDS011;7237;49.500;11.400;2023-08-17T01:10:09;7.00;;;5.60;;
14306;SDS011;7237;49.500;11.400;2023-08-17T01:12:37;7.25;;;5.05;;
14306;SDS011;7237;49.500;11.400;2023-08-17T01:15:09;8.20;;;5.45;;
14306;SDS011;7237;49.500;11.400;2023-08-17T01:17:37;8.48;;;5.50;;
14306;SDS011;7237;49.500;11.400;2023-08-17T01:20:06;6.13;;;5.53;;
14306;SDS011;7237;49.500;11.400;2023-08-17T01:22:37;6.57;;;5.97;;
14306;SDS011;7237;49.500;11.400;2023-08-17T01:25:08;6.75;;;5.72;;
14306;SDS011;7237;49.500;11.400;2023-08-17T01:27:36;7.85;;;5.53;;
14306;SDS011;7237;49.500;11.400;2023-08-17T01:30:04;6.30;;;5.70;;
14306;SDS011;7237;49.500;11.400;2023-08-17T01:32:32;7.07;;;5.28;;
14306;SDS011;7237;49.500;11.400;2023-08-17T01:35:05;8.05;;;5.32;;
14306;SDS011;7237;49.500;11.400;2023-08-17T01:37:36;9.18;;;5.15;;
14306;SDS011;7237;49.500;11.400;2023-08-17T01:40:06;7.30;;;5.22;;
14306;SDS011;7237;49.500;11.400;2023-08-17T01:42:35;6.60;;;5.43;;
14306;SDS011;7237;49.500;11.400;2023-08-17T01:45:03;6.68;;;5.43;;
14306;SDS011;7237;49.500;11.400;2023-08-17T01:47:30;6.13;;;5.05;;
14306;SDS011;7237;49.500;11.400;2023-08-17T01:49:58;6.88;;;6.15;;
14306;SDS011;7237;49.500;11.400;2023-08-17T01:52:25;6.18;;;5.57;;
14306;SDS011;7237;49.500;11.400;2023-08-17T01:54:53;7.82;;;6.53;;
14306;SDS011;7237;49.500;11.400;2023-08-17T01:57:20;9.05;;;6.10;;
14306;SDS011;7237;49.500;11.400;2023-08-17T01:59:49;8.38;;;6.50;;
14306;SDS011;7237;49.500;11.400;2023-08-17T02:02:16;6.50;;;5.90;;
14306;SDS011;7237;49.500;11.400;2023-08-17T02:04:43;6.70;;;5.30;;
14306;SDS011;7237;49.500;11.400;2023-08-17T02:07:10;6.10;;;5.60;;
14306;SDS011;7237;49.500;11.400;2023-08-17T02:09:37;6.28;;;5.18;;
14306;SDS011;7237;49.500;11.400;2023-08-17T02:12:04;6.25;;;5.25;;
14306;SDS011;7237;49.500;11.400;2023-08-17T02:14:33;8.88;;;5.57;;
14306;SDS011;7237;49.500;11.400;2023-08-17T02:17:01;8.13;;;5.65;;
14306;SDS011;7237;49.500;11.400;2023-08-17T02:19:30;6.13;;;5.53;;
14306;SDS011;7237;49.500;11.400;2023-08-17T02:21:57;6.18;;;5.38;;
14306;SDS011;7237;49.500;11.400;2023-08-17T02:24:25;7.78;;;5.65;;
14306;SDS011;7237;49.500;11.400;2023-08-17T02:26:52;6.30;;;5.75;;
14306;SDS011;7237;49.500;11.400;2023-08-17T02:29:19;6.18;;;5.60;;
14306;SDS011;7237;49.500;11.400;2023-08-17T02:31:46;6.53;;;5.55;;
14306;SDS011;7237;49.500;11.400;2023-08-17T02:34:14;7.75;;;6.35;;
14306;SDS011;7237;49.500;11.400;2023-08-17T02:36:41;8.23;;;5.72;;
14306;SDS011;7237;49.500;11.400;2023-08-17T02:39:08;8.25;;;5.85;;
14306;SDS011;7237;49.500;11.400;2023-08-17T02:41:35;7.07;;;6.03;;
14306;SDS011;7237;49.500;11.400;2023-08-17T02:44:03;7.07;;;6.03;;
14306;SDS011;7237;49.500;11.400;2023-08-17T02:46:30;7.03;;;6.10;;
14306;SDS011;7237;49.500;11.400;2023-08-17T02:48:57;6.38;;;5.30;;
14306;SDS011;7237;49.500;11.400;2023-08-17T02:51:25;7.32;;;5.30;;
14306;SDS011;7237;49.500;11.400;2023-08-17T02:53:52;8.57;;;5.68;;
14306;SDS011;7237;49.500;11.400;2023-08-17T02:56:19;5.57;;;5.07;;
14306;SDS011;7237;49.500;11.400;2023-08-17T02:58:46;5.43;;;5.03;;
14306;SDS011;7237;49.500;11.400;2023-08-17T03:01:13;6.57;;;5.28;;
14306;SDS011;7237;49.500;11.400;2023-08-17T03:03:40;9.00;;;5.70;;
14306;SDS011;7237;49.500;11.400;2023-08-17T03:06:07;7.88;;;5.55;;
14306;SDS011;7237;49.500;11.400;2023-08-17T03:08:36;8.63;;;5.63;;
14306;SDS011;7237;49.500;11.400;2023-08-17T03:11:03;8.80;;;5.80;;
14306;SDS011;7237;49.500;11.400;2023-08-17T03:13:32;6.10;;;5.60;;
14306;SDS011;7237;49.500;11.400;2023-08-17T03:15:59;6.20;;;5.70;;
14306;SDS011;7237;49.500;11.400;2023-08-17T03:18:26;8.90;;;6.03;;
14306;SDS011;7237;49.500;11.400;2023-08-17T03:20:53;7.28;;;5.88;;
14306;SDS011;7237;49.500;11.400;2023-08-17T03:23:20;8.73;;;6.20;;
14306;SDS011;7237;49.500;11.400;2023-08-17T03:25:52;6.55;;;5.95;;
14306;SDS011;7237;49.500;11.400;2023-08-17T03:28:19;6.78;;;6.00;;
14306;SDS011;7237;49.500;11.400;2023-08-17T03:30:46;6.72;;;6.07;;
14306;SDS011;7237;49.500;11.400;2023-08-17T03:33:13;7.22;;;6.18;;
14306;SDS011;7237;49.500;11.400;2023-08-17T03:35:40;7.80;;;5.93;;
14306;SDS011;7237;49.500;11.400;2023-08-17T03:38:07;9.35;;;6.32;;
14306;SDS011;7237;49.500;11.400;2023-08-17T03:40:34;6.70;;;5.88;;
14306;SDS011;7237;49.500;11.400;2023-08-17T03:43:03;10.88;;;6.68;;
14306;SDS011;7237;49.500;11.400;2023-08-17T03:45:30;7.93;;;5.93;;
14306;SDS011;7237;49.500;11.400;2023-08-17T03:47:57;7.05;;;5.97;;
14306;SDS011;7237;49.500;11.400;2023-08-17T03:50:25;6.68;;;5.63;;
14306;SDS011;7237;49.500;11.400;2023-08-17T03:52:52;9.82;;;6.35;;
14306;SDS011;7237;49.500;11.400;2023-08-17T03:55:19;9.45;;;6.68;;
14306;SDS011;7237;49.500;11.400;2023-08-17T03:57:47;8.05;;;6.50;;
14306;SDS011;7237;49.500;11.400;2023-08-17T04:00:15;10.05;;;6.55;;
14306;SDS011;7237;49.500;11.400;2023-08-17T04:02:42;7.15;;;6.35;;
14306;SDS011;7237;49.500;11.400;2023-08-17T04:05:09;11.60;;;6.38;;
14306;SDS011;7237;49.500;11.400;2023-08-17T04:07:37;7.65;;;6.15;;
14306;SDS011;7237;49.500;11.400;2023-08-17T04:10:05;7.15;;;5.80;;
14306;SDS011;7237;49.500;11.400;2023-08-17T04:12:32;6.82;;;6.22;;
14306;SDS011;7237;49.500;11.400;2023-08-17T04:14:59;6.65;;;6.05;;
14306;SDS011;7237;49.500;11.400;2023-08-17T04:17:27;6.60;;;5.68;;
14306;SDS011;7237;49.500;11.400;2023-08-17T04:19:54;6.80;;;6.03;;
14306;SDS011;7237;49.500;11.400;2023-08-17T04:22:21;9.75;;;6.63;;
14306;SDS011;7237;49.500;11.400;2023-08-17T04:24:49;8.65;;;6.63;;
14306;SDS011;7237;49.500;11.400;2023-08-17T04:27:16;7.65;;;6.95;;
14306;SDS011;7237;49.500;11.400;2023-08-17T04:29:43;7.13;;;5.97;;
14306;SDS011;7237;49.500;11.400;2023-08-17T04:32:13;10.18;;;6.28;;
14306;SDS011;7237;49.500;11.400;2023-08-17T04:34:42;6.82;;;6.00;;
14306;SDS011;7237;49.500;11.400;2023-08-17T04:37:09;6.97;;;6.38;;
14306;SDS011;7237;49.500;11.400;2023-08-17T04:39:36;6.90;;;6.18;;
14306;SDS011;7237;49.500;11.400;2023-08-17T04:42:03;6.43;;;5.82;;
14306;SDS011;7237;49.500;11.400;2023-08-17T04:44:30;6.88;;;6.15;;
14306;SDS011;7237;49.500;11.400;2023-08-17T04:46:58;8.70;;;6.70;;
14306;SDS011;7237;49.500;11.400;2023-08-17T04:49:25;9.52;;;6.50;;
14306;SDS011;7237;49.500;11.400;2023-08-17T04:51:53;6.10;;;5.50;;
14306;SDS011;7237;49.500;11.400;2023-08-17T04:54:20;6.68;;;6.03;;
14306;SDS011;7237;49.500;11.400;2023-08-17T04:56:47;6.13;;;5.57;;
14306;SDS011;7237;49.500;11.400;2023-08-17T04:59:14;7.82;;;5.80;;
14306;SDS011;7237;49.500;11.400;2023-08-17T05:01:41;8.10;;;5.43;;
14306;SDS011;7237;49.500;11.400;2023-08-17T05:04:08;6.65;;;6.05;;
14306;SDS011;7237;49.500;11.400;2023-08-17T05:06:36;8.65;;;5.93;;
14306;SDS011;7237;49.500;11.400;2023-08-17T05:09:05;7.53;;;5.60;;
14306;SDS011;7237;49.500;11.400;2023-08-17T05:11:32;8.10;;;5.95;;
14306;SDS011;7237;49.500;11.400;2023-08-17T05:13:59;5.93;;;5.43;;
14306;SDS011;7237;49.500;11.400;2023-08-17T05:16:26;6.50;;;5.72;;
14306;SDS011;7237;49.500;11.400;2023-08-17T05:18:53;6.55;;;5.82;;
14306;SDS011;7237;49.500;11.400;2023-08-17T05:21:22;7.13;;;6.00;;
14306;SDS011;7237;49.500;11.400;2023-08-17T05:23:49;6.28;;;5.68;;
14306;SDS011;7237;49.500;11.400;2023-08-17T05:26:18;6.10;;;5.50;;
14306;SDS011;7237;49.500;11.400;2023-08-17T05:28:45;7.70;;;6.45;;
14306;SDS011;7237;49.500;11.400;2023-08-17T05:31:12;9.65;;;6.00;;
14306;SDS011;7237;49.500;11.400;2023-08-17T05:33:39;6.50;;;6.00;;
14306;SDS011;7237;49.500;11.400;2023-08-17T05:36:06;6.55;;;5.95;;
14306;SDS011;7237;49.500;11.400;2023-08-17T05:38:33;6.22;;;5.55;;
14306;SDS011;7237;49.500;11.400;2023-08-17T05:41:00;8.68;;;5.88;;
14306;SDS011;7237;49.500;11.400;2023-08-17T05:43:29;6.60;;;5.85;;
14306;SDS011;7237;49.500;11.400;2023-08-17T05:45:56;7.43;;;6.10;;
14306;SDS011;7237;49.500;11.400;2023-08-17T05:48:24;6.95;;;6.30;;
14306;SDS011;7237;49.500;11.400;2023-08-17T05:50:51;6.75;;;5.68;;
14306;SDS011;7237;49.500;11.400;2023-08-17T05:53:18;6.97;;;5.40;;
14306;SDS011;7237;49.500;11.400;2023-08-17T05:55:45;4.70;;;4.30;;
14306;SDS011;7237;49.500;11.400;2023-08-17T05:58:12;5.43;;;4.93;;
14306;SDS011;7237;49.500;11.400;2023-08-17T06:00:40;7.35;;;4.20;;
14306;SDS011;7237;49.500;11.400;2023-08-17T06:03:08;7.90;;;4.72;;
14306;SDS011;7237;49.500;11.400;2023-08-17T06:05:35;6.88;;;4.40;;
14306;SDS011;7237;49.500;11.400;2023-08-17T06:08:03;5.88;;;4.40;;
14306;SDS011;7237;49.500;11.400;2023-08-17T06:10:30;4.60;;;4.15;;
14306;SDS011;7237;49.500;11.400;2023-08-17T06:12:57;7.63;;;4.50;;
14306;SDS011;7237;49.500;11.400;2023-08-17T06:15:24;5.10;;;4.32;;
14306;SDS011;7237;49.500;11.400;2023-08-17T06:17:53;7.57;;;4.20;;
14306;SDS011;7237;49.500;11.400;2023-08-17T06:20:20;5.65;;;4.18;;
14306;SDS011;7237;49.500;11.400;2023-08-17T06:22:47;5.13;;;4.00;;
14306;SDS011;7237;49.500;11.400;2023-08-17T06:25:15;4.70;;;4.30;;
14306;SDS011;7237;49.500;11.400;2023-08-17T06:27:42;5.38;;;3.97;;
14306;SDS011;7237;49.500;11.400;2023-08-17T06:30:09;7.32;;;4.22;;
14306;SDS011;7237;49.500;11.400;2023-08-17T06:32:37;5.10;;;4.53;;
14306;SDS011;7237;49.500;11.400;2023-08-17T06:35:06;4.95;;;4.55;;
14306;SDS011;7237;49.500;11.400;2023-08-17T06:37:33;4.28;;;3.85;;
14306;SDS011;7237;49.500;11.400;2023-08-17T06:40:00;7.15;;;4.50;;
14306;SDS011;7237;49.500;11.400;2023-08-17T06:42:27;5.90;;;4.22;;
14306;SDS011;7237;49.500;11.400;2023-08-17T06:44:54;8.23;;;4.30;;
14306;SDS011;7237;49.500;11.400;2023-08-17T06:47:22;6.55;;;4.20;;
14306;SDS011;7237;49.500;11.400;2023-08-17T06:49:49;4.05;;;3.75;;
14306;SDS011;7237;49.500;11.400;2023-08-17T06:52:17;7.55;;;4.20;;
14306;SDS011;7237;49.500;11.400;2023-08-17T06:54:44;4.20;;;3.80;;
14306;SDS011;7237;49.500;11.400;2023-08-17T06:57:11;5.90;;;4.65;;
14306;SDS011;7237;49.500;11.400;2023-08-17T06:59:38;6.15;;;4.45;;
14306;SDS011;7237;49.500;11.400;2023-08-17T07:02:05;4.85;;;4.43;;
14306;SDS011;7237;49.500;11.400;2023-08-17T07:04:32;5.45;;;4.95;;
14306;SDS011;7237;49.500;11.400;2023-08-17T07:06:59;6.18;;;4.30;;
14306;SDS011;7237;49.500;11.400;2023-08-17T07:09:28;6.30;;;5.15;;
14306;SDS011;7237;49.500;11.400;2023-08-17T07:11:55;4.88;;;4.47;;
14306;SDS011;7237;49.500;11.400;2023-08-17T07:14:22;5.18;;;4.68;;
14306;SDS011;7237;49.500;11.400;2023-08-17T07:16:49;5.88;;;4.68;;
14306;SDS011;7237;49.500;11.400;2023-08-17T07:19:16;4.93;;;4.47;;
14306;SDS011;7237;49.500;11.400;2023-08-17T07:21:44;7.10;;;4.25;;
14306;SDS011;7237;49.500;11.400;2023-08-17T07:24:11;5.70;;;4.45;;
14306;SDS011;7237;49.500;11.400;2023-08-17T07:26:40;6.30;;;4.97;;
14306;SDS011;7237;49.500;11.400;2023-08-17T07:29:07;5.80;;;5.13;;
14306;SDS011;7237;49.500;11.400;2023-08-17T07:31:34;8.68;;;4.50;;
14306;SDS011;7237;49.500;11.400;2023-08-17T07:34:02;6.95;;;4.47;;
14306;SDS011;7237;49.500;11.400;2023-08-17T07:36:30;7.85;;;5.13;;
14306;SDS011;7237;49.500;11.400;2023-08-17T07:38:57;5.68;;;4.72;;
14306;SDS011;7237;49.500;11.400;2023-08-17T07:41:24;5.32;;;4.82;;
14306;SDS011;7237;49.500;11.400;2023-08-17T07:43:52;6.78;;;4.90;;
14306;SDS011;7237;49.500;11.400;2023-08-17T07:46:19;5.15;;;4.47;;
14306;SDS011;7237;49.500;11.400;2023-08-17T07:48:46;6.22;;;4.90;;
14306;SDS011;7237;49.500;11.400;2023-08-17T07:51:14;7.05;;;5.00;;
14306;SDS011;7237;49.500;11.400;2023-08-17T07:53:41;4.68;;;4.38;;
14306;SDS011;7237;49.500;11.400;2023-08-17T07:56:08;4.75;;;4.30;;
14306;SDS011;7237;49.500;11.400;2023-08-17T07:58:35;5.63;;;4.85;;
14306;SDS011;7237;49.500;11.400;2023-08-17T08:01:03;6.13;;;4.88;;
14306;SDS011;7237;49.500;11.400;2023-08-17T08:03:30;9.15;;;5.07;;
14306;SDS011;7237;49.500;11.400;2023-08-17T08:05:58;5.38;;;4.85;;
14306;SDS011;7237;49.500;11.400;2023-08-17T08:08:25;6.85;;;5.05;;
14306;SDS011;7237;49.500;11.400;2023-08-17T08:10:52;5.25;;;4.85;;
14306;SDS011;7237;49.500;11.400;2023-08-17T08:13:20;5.63;;;4.38;;
14306;SDS011;7237;49.500;11.400;2023-08-17T08:15:47;5.38;;;4.93;;
14306;SDS011;7237;49.500;11.400;2023-08-17T08:18:15;6.13;;;5.57;;
14306;SDS011;7237;49.500;11.400;2023-08-17T08:20:42;5.57;;;4.82;;
14306;SDS011;7237;49.500;11.400;2023-08-17T08:23:09;5.65;;;5.15;;
14306;SDS011;7237;49.500;11.400;2023-08-17T08:25:36;5.82;;;5.25;;
14306;SDS011;7237;49.500;11.400;2023-08-17T08:28:04;4.97;;;4.53;;
14306;SDS011;7237;49.500;11.400;2023-08-17T08:30:31;8.00;;;5.03;;
14306;SDS011;7237;49.500;11.400;2023-08-17T08:32:58;5.70;;;5.05;;
14306;SDS011;7237;49.500;11.400;2023-08-17T08:35:26;9.10;;;5.32;;
14306;SDS011;7237;49.500;11.400;2023-08-17T08:37:54;5.63;;;5.13;;
14306;SDS011;7237;49.500;11.400;2023-08-17T08:40:26;5.05;;;4.65;;
14306;SDS011;7237;49.500;11.400;2023-08-17T08:42:54;6.35;;;4.95;;
14306;SDS011;7237;49.500;11.400;2023-08-17T08:45:21;6.90;;;4.28;;
14306;SDS011;7237;49.500;11.400;2023-08-17T08:47:48;6.40;;;4.60;;
14306;SDS011;7237;49.500;11.400;2023-08-17T08:50:16;5.47;;;4.68;;
14306;SDS011;7237;49.500;11.400;2023-08-17T08:52:48;6.03;;;4.93;;
14306;SDS011;7237;49.500;11.400;2023-08-17T08:55:18;5.43;;;4.85;;
14306;SDS011;7237;49.500;11.400;2023-08-17T08:57:45;5.70;;;5.10;;
14306;SDS011;7237;49.500;11.400;2023-08-17T09:00:14;5.97;;;5.10;;
14306;SDS011;7237;49.500;11.400;2023-08-17T09:02:41;6.38;;;5.10;;
14306;SDS011;7237;49.500;11.400;2023-08-17T09:05:09;6.65;;;4.40;;
14306;SDS011;7237;49.500;11.400;2023-08-17T09:07:37;8.40;;;5.07;;
14306;SDS011;7237;49.500;11.400;2023-08-17T09:10:06;6.93;;;4.30;;
14306;SDS011;7237;49.500;11.400;2023-08-17T09:12:33;6.88;;;4.90;;
14306;SDS011;7237;49.500;11.400;2023-08-17T09:15:00;5.60;;;4.78;;
14306;SDS011;7237;49.500;11.400;2023-08-17T09:17:28;6.22;;;5.22;;
14306;SDS011;7237;49.500;11.400;2023-08-17T09:19:55;9.65;;;5.72;;
14306;SDS011;7237;49.500;11.400;2023-08-17T09:22:22;5.43;;;4.93;;
14306;SDS011;7237;49.500;11.400;2023-08-17T09:24:50;5.32;;;4.78;;
14306;SDS011;7237;49.500;11.400;2023-08-17T09:27:18;5.90;;;5.28;;
14306;SDS011;7237;49.500;11.400;2023-08-17T09:29:47;7.32;;;4.72;;
14306;SDS011;7237;49.500;11.400;2023-08-17T09:32:14;11.73;;;4.93;;
14306;SDS011;7237;49.500;11.400;2023-08-17T09:34:42;6.30;;;5.63;;
14306;SDS011;7237;49.500;11.400;2023-08-17T09:37:09;5.20;;;4.78;;
14306;SDS011;7237;49.500;11.400;2023-08-17T09:39:38;12.25;;;5.28;;
14306;SDS011;7237;49.500;11.400;2023-08-17T09:42:05;5.60;;;5.10;;
14306;SDS011;7237;49.500;11.400;2023-08-17T09:44:34;5.40;;;4.90;;
14306;SDS011;7237;49.500;11.400;2023-08-17T09:47:01;6.05;;;5.30;;
14306;SDS011;7237;49.500;11.400;2023-08-17T09:49:30;5.75;;;5.25;;
14306;SDS011;7237;49.500;11.400;2023-08-17T09:51:59;7.40;;;5.10;;
14306;SDS011;7237;49.500;11.400;2023-08-17T09:54:26;6.53;;;5.30;;
14306;SDS011;7237;49.500;11.400;2023-08-17T09:56:54;5.68;;;5.13;;
14306;SDS011;7237;49.500;11.400;2023-08-17T09:59:21;5.60;;;5.03;;
14306;SDS011;7237;49.500;11.400;2023-08-17T10:01:50;6.00;;;5.07;;
14306;SDS011;7237;49.500;11.400;2023-08-17T10:04:20;5.28;;;4.78;;
14306;SDS011;7237;49.500;11.400;2023-08-17T10:06:48;5.72;;;5.22;;
14306;SDS011;7237;49.500;11.400;2023-08-17T10:09:15;5.60;;;5.05;;
14306;SDS011;7237;49.500;11.400;2023-08-17T10:11:44;5.63;;;4.95;;
14306;SDS011;7237;49.500;11.400;2023-08-17T10:14:13;6.07;;;5.47;;
14306;SDS011;7237;49.500;11.400;2023-08-17T10:16:43;5.57;;;5.03;;
14306;SDS011;7237;49.500;11.400;2023-08-17T10:19:13;6.15;;;5.63;;
14306;SDS011;7237;49.500;11.400;2023-08-17T10:21:43;5.90;;;5.05;;
14306;SDS011;7237;49.500;11.400;2023-08-17T10:24:11;8.20;;;5.30;;
14306;SDS011;7237;49.500;11.400;2023-08-17T10:26:38;5.50;;;5.00;;
14306;SDS011;7237;49.500;11.400;2023-08-17T10:29:06;5.30;;;4.88;;
14306;SDS011;7237;49.500;11.400;2023-08-17T10:31:34;5.53;;;5.03;;
14306;SDS011;7237;49.500;11.400;2023-08-17T10:34:01;11.10;;;5.20;;
14306;SDS011;7237;49.500;11.400;2023-08-17T10:36:30;4.88;;;4.30;;
14306;SDS011;7237;49.500;11.400;2023-08-17T10:41:45;5.90;;;5.18;;
14306;SDS011;7237;49.500;11.400;2023-08-17T10:44:12;5.47;;;5.00;;
14306;SDS011;7237;49.500;11.400;2023-08-17T10:46:40;6.35;;;4.70;;
14306;SDS011;7237;49.500;11.400;2023-08-17T10:49:24;5.68;;;5.07;;
14306;SDS011;7237;49.500;11.400;2023-08-17T10:52:03;9.63;;;5.45;;
14306;SDS011;7237;49.500;11.400;2023-08-17T10:54:36;8.88;;;5.80;;
14306;SDS011;7237;49.500;11.400;2023-08-17T11:00:02;7.15;;;5.13;;
14306;SDS011;7237;49.500;11.400;2023-08-17T11:02:33;7.57;;;4.65;;
14306;SDS011;7237;49.500;11.400;2023-08-17T11:05:00;8.75;;;5.05;;
14306;SDS011;7237;49.500;11.400;2023-08-17T11:07:29;9.13;;;5.43;;
14306;SDS011;7237;49.500;11.400;2023-08-17T11:10:10;5.45;;;4.85;;
14306;SDS011;7237;49.500;11.400;2023-08-17T11:12:37;6.20;;;4.95;;
14306;SDS011;7237;49.500;11.400;2023-08-17T11:15:05;6.88;;;5.10;;
14306;SDS011;7237;49.500;11.400;2023-08-17T11:17:32;5.10;;;4.70;;
14306;SDS011;7237;49.500;11.400;2023-08-17T11:19:59;5.65;;;5.15;;
14306;SDS011;7237;49.500;11.400;2023-08-17T11:22:28;7.20;;;5.22;;
14306;SDS011;7237;49.500;11.400;2023-08-17T11:24:55;6.70;;;5.25;;
14306;SDS011;7237;49.500;11.400;2023-08-17T11:27:22;7.72;;;5.32;;
14306;SDS011;7237;49.500;11.400;2023-08-17T11:29:50;5.97;;;5.47;;
14306;SDS011;7237;49.500;11.400;2023-08-17T11:32:17;5.63;;;5.13;;
14306;SDS011;7237;49.500;11.400;2023-08-17T11:34:44;6.68;;;5.43;;
14306;SDS011;7237;49.500;11.400;2023-08-17T11:37:11;7.15;;;5.47;;
14306;SDS011;7237;49.500;11.400;2023-08-17T11:39:41;5.35;;;4.88;;
14306;SDS011;7237;49.500;11.400;2023-08-17T11:42:08;5.95;;;5.20;;
14306;SDS011;7237;49.500;11.400;2023-08-17T11:44:35;6.13;;;5.53;;
14306;SDS011;7237;49.500;11.400;2023-08-17T11:47:02;6.15;;;5.60;;
14306;SDS011;7237;49.500;11.400;2023-08-17T11:49:30;7.25;;;5.43;;
14306;SDS011;7237;49.500;11.400;2023-08-17T11:51:57;11.40;;;5.70;;
14306;SDS011;7237;49.500;11.400;2023-08-17T11:54:24;6.25;;;5.40;;
14306;SDS011;7237;49.500;11.400;2023-08-17T11:56:52;7.20;;;5.35;;
14306;SDS011;7237;49.500;11.400;2023-08-17T11:59:19;7.15;;;5.15;;
14306;SDS011;7237;49.500;11.400;2023-08-17T12:01:48;5.35;;;4.75;;
14306;SDS011;7237;49.500;11.400;2023-08-17T12:04:15;6.43;;;4.80;;
14306;SDS011;7237;49.500;11.400;2023-08-17T12:06:43;8.45;;;5.47;;
14306;SDS011;7237;49.500;11.400;2023-08-17T12:09:11;7.00;;;5.68;;
14306;SDS011;7237;49.500;11.400;2023-08-17T12:11:38;5.50;;;5.00;;
14306;SDS011;7237;49.500;11.400;2023-08-17T12:14:11;5.55;;;4.88;;
14306;SDS011;7237;49.500;11.400;2023-08-17T12:16:47;10.23;;;5.90;;
14306;SDS011;7237;49.500;11.400;2023-08-17T12:19:14;5.50;;;5.07;;
14306;SDS011;7237;49.500;11.400;2023-08-17T12:21:41;5.93;;;4.72;;
14306;SDS011;7237;49.500;11.400;2023-08-17T12:24:09;6.15;;;4.72;;
14306;SDS011;7237;49.500;11.400;2023-08-17T12:26:40;6.15;;;5.15;;
14306;SDS011;7237;49.500;11.400;2023-08-17T12:29:08;6.50;;;4.88;;
14306;SDS011;7237;49.500;11.400;2023-08-17T12:31:36;7.68;;;5.40;;
14306;SDS011;7237;49.500;11.400;2023-08-17T12:34:03;10.27;;;5.00;;
14306;SDS011;7237;49.500;11.400;2023-08-17T12:36:31;6.68;;;5.25;;
14306;SDS011;7237;49.500;11.400;2023-08-17T12:38:58;5.78;;;5.28;;
14306;SDS011;7237;49.500;11.400;2023-08-17T12:41:25;6.18;;;5.53;;
14306;SDS011;7237;49.500;11.400;2023-08-17T12:43:52;5.35;;;4.95;;
14306;SDS011;7237;49.500;11.400;2023-08-17T12:46:19;5.97;;;5.47;;
14306;SDS011;7237;49.500;11.400;2023-08-17T12:48:48;5.72;;;5.25;;
14306;SDS011;7237;49.500;11.400;2023-08-17T12:51:15;6.22;;;5.05;;
14306;SDS011;7237;49.500;11.400;2023-08-17T12:53:42;8.27;;;5.40;;
14306;SDS011;7237;49.500;11.400;2023-08-17T12:56:09;7.38;;;5.35;;
14306;SDS011;7237;49.500;11.400;2023-08-17T12:58:36;5.00;;;4.60;;
14306;SDS011;7237;49.500;11.400;2023-08-17T13:01:03;5.60;;;4.72;;
14306;SDS011;7237;49.500;11.400;2023-08-17T13:03:30;5.38;;;4.88;;
14306;SDS011;7237;49.500;11.400;2023-08-17T13:05:59;5.25;;;4.82;;
14306;SDS011;7237;49.500;11.400;2023-08-17T13:08:26;5.65;;;5.07;;
14306;SDS011;7237;49.500;11.400;2023-08-17T13:10:53;5.45;;;4.57;;
14306;SDS011;7237;49.500;11.400;2023-08-17T13:13:20;6.22;;;5.25;;
14306;SDS011;7237;49.500;11.400;2023-08-17T13:15:47;5.13;;;4.60;;
14306;SDS011;7237;49.500;11.400;2023-08-17T13:18:14;4.90;;;4.40;;
14306;SDS011;7237;49.500;11.400;2023-08-17T13:20:41;5.93;;;4.55;;
14306;SDS011;7237;49.500;11.400;2023-08-17T13:23:10;6.50;;;4.70;;
14306;SDS011;7237;49.500;11.400;2023-08-17T13:25:38;6.90;;;4.88;;
14306;SDS011;7237;49.500;11.400;2023-08-17T13:28:05;5.70;;;5.20;;
14306;SDS011;7237;49.500;11.400;2023-08-17T13:30:32;5.45;;;4.95;;
14306;SDS011;7237;49.500;11.400;2023-08-17T13:32:59;6.10;;;4.82;;
14306;SDS011;7237;49.500;11.400;2023-08-17T13:35:26;4.93;;;4.43;;
14306;SDS011;7237;49.500;11.400;2023-08-17T13:37:53;5.75;;;5.15;;
14306;SDS011;7237;49.500;11.400;2023-08-17T13:40:23;7.78;;;4.45;;
14306;SDS011;7237;49.500;11.400;2023-08-17T13:42:51;5.30;;;4.90;;
14306;SDS011;7237;49.500;11.400;2023-08-17T13:45:18;5.63;;;4.50;;
14306;SDS011;7237;49.500;11.400;2023-08-17T13:47:46;7.97;;;4.72;;
14306;SDS011;7237;49.500;11.400;2023-08-17T13:50:13;5.07;;;4.60;;
14306;SDS011;7237;49.500;11.400;2023-08-17T13:52:40;5.47;;;4.45;;
14306;SDS011;7237;49.500;11.400;2023-08-17T13:55:07;5.30;;;4.80;;
14306;SDS011;7237;49.500;11.400;2023-08-17T13:57:36;5.65;;;4.82;;
14306;SDS011;7237;49.500;11.400;2023-08-17T14:00:03;5.28;;;4.80;;
14306;SDS011;7237;49.500;11.400;2023-08-17T14:02:31;5.97;;;4.18;;
14306;SDS011;7237;49.500;11.400;2023-08-17T14:04:58;6.68;;;4.40;;
14306;SDS011;7237;49.500;11.400;2023-08-17T14:07:25;9.00;;;4.43;;
14306;SDS011;7237;49.500;11.400;2023-08-17T14:09:52;5.47;;;4.95;;
14306;SDS011;7237;49.500;11.400;2023-08-17T14:12:19;5.25;;;4.50;;
14306;SDS011;7237;49.500;11.400;2023-08-17T14:14:48;5.95;;;4.15;;
14306;SDS011;7237;49.500;11.400;2023-08-17T14:17:15;5.47;;;4.40;;
14306;SDS011;7237;49.500;11.400;2023-08-17T14:19:42;4.53;;;4.10;;
14306;SDS011;7237;49.500;11.400;2023-08-17T14:22:09;4.50;;;3.88;;
14306;SDS011;7237;49.500;11.400;2023-08-17T14:24:36;4.63;;;4.32;;
14306;SDS011;7237;49.500;11.400;2023-08-17T14:27:03;4.90;;;4.50;;
14306;SDS011;7237;49.500;11.400;2023-08-17T14:29:30;5.18;;;4.72;;
14306;SDS011;7237;49.500;11.400;2023-08-17T14:31:58;5.32;;;4.57;;
14306;SDS011;7237;49.500;11.400;2023-08-17T14:34:26;4.68;;;4.18;;
14306;SDS011;7237;49.500;11.400;2023-08-17T14:36:53;4.68;;;4.20;;
14306;SDS011;7237;49.500;11.400;2023-08-17T14:39:20;6.80;;;4.68;;
14306;SDS011;7237;49.500;11.400;2023-08-17T14:41:47;4.82;;;4.32;;
14306;SDS011;7237;49.500;11.400;2023-08-17T14:44:14;6.72;;;4.65;;
14306;SDS011;7237;49.500;11.400;2023-08-17T14:46:42;7.75;;;4.68;;
14306;SDS011;7237;49.500;11.400;2023-08-17T14:49:10;5.10;;;4.70;;
14306;SDS011;7237;49.500;11.400;2023-08-17T14:51:38;4.70;;;4.35;;
14306;SDS011;7237;49.500;11.400;2023-08-17T14:54:05;4.78;;;3.97;;
14306;SDS011;7237;49.500;11.400;2023-08-17T14:56:33;4.75;;;3.83;;